ADDS METAR Data INFO
IDs: Format: Raw Decoded Include TAF

Data at: 0847 UTC 27 Jun 2017

KAMA 270753Z AUTO 20009KT 10SM CLR 19/17 A3014 RMK AO2 SLP153 T01890172
KAMA 270653Z AUTO 20010KT 10SM CLR 21/17 A3012 RMK AO2 SLP148 T02060167
KAMA 270553Z AUTO 20010KT 10SM CLR 21/17 A3015 RMK AO2 SLP157 T02060167 10283 20206 403000144 50009
KAMA 270453Z AUTO 19011KT 10SM CLR 22/16 A3016 RMK AO2 SLP162 T02170156
KAMA 270353Z 17010KT 10SM CLR 23/15 A3014 RMK AO2 SLP156 T02280150
KAMA 270253Z 15011KT 10SM CLR 23/14 A3012 RMK AO2 SLP149 T02330144 50002
KAMA 270153Z 16008KT 10SM CLR 24/14 A3012 RMK AO2 SLP152 T02440144
KAMA 270053Z 15010KT 10SM CLR 27/13 A3011 RMK AO2 SLP152 T02670133
KAMA 262353Z 14008KT 10SM CLR 28/13 A3011 RMK AO2 SLP150 T02830133 10300 20267 56016
KAMA 262253Z 17008G17KT 10SM SCT060 29/14 A3012 RMK AO2 SLP152 T02890139
KAMA 262153Z 14010G18KT 10SM CLR 29/14 A3014 RMK AO2 SLP155 T02940144
KAMA 262053Z VRB03KT 10SM CLR 29/12 A3016 RMK AO2 SLP166 T02890117
KAMA 261953Z 18009KT 10SM CLR 29/12 A3018 RMK AO2 SLP172 T02890122
KAMA 261853Z 21005KT 10SM 28/12 A3021 RMK AO2 SLP183 T02780122
KAMA 261753Z 19008KT 10SM CLR 27/14 A3023 RMK AO2 SLP193 T02670139 10272 20144 56014
KAMA 261653Z 20010KT 10SM CLR 26/13 A3024 RMK AO2 SLP198 T02560133
KAMA 261553Z 23011KT 10SM CLR 24/13 A3026 RMK AO2 SLP208 T02390133
KAMA 261453Z 22011KT 10SM CLR 22/13 A3028 RMK AO2 SLP207 T02170133 51005
KAMA 261353Z 29007KT 10SM CLR 18/14 A3028 RMK AO2 SLP210 T01830144
KAMA 261253Z 30010KT 10SM CLR 16/14 A3027 RMK AO2 SLP209 T01560139
KAMA 261153Z 30009KT 10SM CLR 15/13 A3026 RMK AO2 SLP204 60003 70070 T01500133 10167 20150 57001
KAMA 261053Z 31009KT 10SM CLR 15/14 A3026 RMK AO2 SLP203 T01500139
KAMA 260953Z AUTO 33006KT 10SM CLR 16/14 A3026 RMK AO2 SLP204 T01560144
KAMA 260853Z AUTO 36003KT 10SM CLR 16/13 A3026 RMK AO2 SLP204 60003 T01560133 53012
KAMA 260753Z AUTO 16014KT 10SM CLR 16/13 A3023 RMK AO2 PK WND 17032/0654 SLP193 T01610133
KAMA 260653Z AUTO 17022G29KT 10SM FEW120 17/13 A3020 RMK AO2 PK WND 16034/0624 LTG DSNT SE AND SW RAE09 TSE05 SLP183 P0003 T01670133
KAMA 260611Z AUTO 17023G29KT 10SM OVC100 16/14 A3021 RMK AO2 PK WND 17029/0611 LTG DSNT E-S RAE09 TSE05 P0003 T01560139
KAMA 260553Z AUTO 16023G31KT 5SM TSRA BR FEW070 BKN090 OVC110 16/14 A3022 RMK AO2 PK WND 15031/0550 LTG DSNT E-S TSB10E25B28 PRESFR SLP195 P0017 60060 T01560144 10261 20144 402720144 50008
KAMA 260516Z AUTO 15020KT 6SM TSRA BR BKN075 OVC095 15/14 A3031 RMK AO2 LTG DSNT ALQDS TSB10 P0005 T01500144
KAMA 260453Z AUTO 16012KT 9SM VCTS -RA BKN080 OVC095 16/14 A3030 RMK AO2 WSHFT 0355 LTG DSNT ALQDS TSE25 SLP223 P0023 T01560144
KAMA 260431Z 17011KT 8SM VCTS -RA FEW060 BKN075 OVC095 16/14 A3027 RMK AO2 WSHFT 0355 LTG DSNT ALQDS TSE25 P0021 T01560144
KAMA 260415Z 17010KT 7SM -TSRA BKN047 OVC075 15/14 A3026 RMK AO2 WSHFT 0355 LTG DSNT ALQDS P0019 T01500144
KAMA 260359Z 14013KT 3SM +TSRA BR FEW011 FEW034 OVC041 16/14 A3027 RMK AO2 LTG DSNT ALQDS P0010 T01560139
KAMA 260353Z 09009G29KT 1 3/4SM +TSRA BR FEW012 OVC035 15/14 A3028 RMK AO2 PK WND 36041/0338 WSHFT 0323 LTG DSNT ALQDS RAB06 TSB28 SLP222 P0020 T01500139
KAMA 260340Z 36025G41KT 1 3/4SM R04/5500VP6000FT +TSRA BR FEW012 BKN032 OVC090 16/13 A3030 RMK AO2 PK WND 36041/0338 WSHFT 0323 LTG DSNT ALQDS RAB06 TSB28 P0003 T01560133
KAMA 260330Z 01024G37KT 9SM -TSRA FEW026 BKN060 OVC110 19/16 A3029 RMK AO2 PK WND 01037/0328 WSHFT 0316 LTG DSNT ALQDS RAB06 TSB28 P0000 T01940161
KAMA 260306Z 12017G24KT 10SM VCTS -RA BKN090 OVC110 21/17 A3020 RMK AO2 LTG DSNT W-NE RAB06 P0000 T02110172
KAMA 260253Z 12019KT 10SM BKN085 22/17 A3020 RMK AO2 PK WND 12026/0239 LTG DSNT ALQDS SLP184 T02170172 50003
KAMA 260153Z 12018G25KT 10SM FEW090 22/17 A3020 RMK AO2 LTG DSNT N AND NW SLP186 T02220172
KAMA 260053Z 12017KT 10SM BKN085 24/17 A3019 RMK AO2 SLP180 T02390172
KAMA 252353Z 13015G20KT 10SM CLR 26/16 A3019 RMK AO2 SLP175 T02610161 10272 20228 56021
KAMA 252253Z 13013KT 10SM CLR 26/16 A3019 RMK AO2 SLP176 T02610161
KAMA 252153Z 15014KT 10SM FEW039 27/16 A3023 RMK AO2 SLP187 T02670161
KAMA 252053Z 13010KT 10SM FEW039 FEW120 26/16 A3025 RMK AO2 SLP199 T02560156 58016


Page loaded:  08:47 UTC  |   01:47 AM Pacific  |   02:47 AM Mountain  |   03:47 AM Central  |   04:47 AM Eastern

 

ADVISORIES

FORECASTS

FORECASTS

OBSERVATIONS

USER TOOLS

ABOUT US